Latest Weather Observations for Whyalla

IDS60801

Issued at 1:05 pm CDT Thursday 27 November 2014 (issued every 30 minutes, with the page automatically refreshed every 10 minutes)

About weather observations | Map of weather stations | Latest weather observations for SA | Other Formats
Station Details ID: 018120 Name: WHYALLA AERO Lat: -33.05 Lon: 137.52 Height: 6.5 m
Data from the previous 72 hours. | See also: Recent months at Whyalla
Date/Time
CDT
Temp
°C
App
Temp
°C
Dew
Point
Rel
Hum
%
Delta-T
°C
Wind Press
QNH
hPa
Press
MSL
hPa
Rain
since 9 am
mm
Dir
 
Spd
km/h
Gust
km/h
Spd
kts
Gust
kts
27/01:00pm 25.1 21.8 9.4 37 8.5 S 17 26 9 14 1020.0 1020.0 0.0
27/12:30pm 24.6 21.0 11.9 45 7.2 S 22 30 12 16 1020.3 1020.3 0.0
27/12:00pm 23.7 20.1 10.4 43 7.3 S 20 28 11 15 1020.6 1020.6 0.0
27/11:30am 23.4 19.8 10.5 44 7.1 S 20 24 11 13 1020.8 1020.8 0.0
27/11:00am 22.3 19.3 10.8 48 6.3 S 17 20 9 11 1021.0 1021.0 0.0
27/10:30am 22.3 19.4 11.1 49 6.2 SSE 17 20 9 11 1021.2 1021.2 0.0
27/10:00am 22.2 20.0 10.7 48 6.3 SSE 13 19 7 10 1021.4 1021.4 0.0
27/09:30am 21.3 19.5 12.2 56 5.1 SSE 13 17 7 9 1021.7 1021.7 0.0
27/09:00am 20.9 19.8 12.1 57 4.9 ESE 9 13 5 7 1021.8 1021.8 0.0
27/08:30am 20.5 18.9 12.7 61 4.4 ESE 13 15 7 8 1021.6 1021.6 0.0
27/08:00am 19.8 18.1 12.6 63 4.0 ESE 13 20 7 11 1021.5 1021.5 0.0
27/07:30am 19.0 16.9 12.5 66 3.6 ESE 15 22 8 12 1021.3 1021.3 0.0
27/07:00am 18.3 17.1 12.7 70 3.1 ESE 11 17 6 9 1021.1 1021.1 0.0
27/06:30am 15.8 15.3 12.0 78 2.1 SSE 6 7 3 4 1020.9 1020.9 0.0
27/06:00am 16.1 15.0 12.1 77 2.2 SE 9 13 5 7 1020.8 1020.8 0.0
27/05:30am 16.4 14.5 11.8 74 2.5 SE 13 19 7 10 1020.5 1020.5 0.0
27/05:00am 16.7 13.9 11.4 71 2.9 SSE 17 24 9 13 1020.3 1020.3 0.0
27/04:30am 16.9 14.4 11.0 68 3.2 SSE 15 24 8 13 1020.4 1020.4 0.0
27/04:00am 17.2 15.0 10.8 66 3.4 SSE 13 19 7 10 1020.3 1020.3 0.0
27/03:30am 17.6 15.4 10.7 64 3.7 SSE 13 20 7 11 1020.2 1020.2 0.0
27/03:00am 17.8 15.1 10.4 62 3.9 SSE 15 20 8 11 1020.2 1020.2 0.0
27/02:30am 18.1 15.4 10.5 61 4.1 SSE 15 20 8 11 1020.2 1020.2 0.0
27/02:00am 18.1 16.4 12.3 69 3.2 SSE 13 17 7 9 1020.4 1020.4 0.0
27/01:30am 18.2 16.1 12.4 69 3.2 S 15 19 8 10 1020.8 1020.8 0.0
27/01:00am 18.3 15.7 13.2 72 2.9 S 19 24 10 13 1021.1 1021.1 0.0
27/12:30am 18.3 15.2 13.4 73 2.8 S 22 28 12 15 1021.3 1021.3 0.0
27/12:00am 18.1 14.6 13.4 74 2.6 S 24 33 13 18 1021.6 1021.6 0.0
 
Date/Time
CDT
Temp
°C
App
Temp
°C
Dew
Point
Rel
Hum
%
Delta-T
°C
Wind Press
QNH
hPa
Press
MSL
hPa
Rain
since 9 am
mm
Dir
 
Spd
km/h
Gust
km/h
Spd
kts
Gust
kts
26/11:30pm 18.1 14.5 13.0 72 2.9 S 24 37 13 20 1021.7 1021.7 0.0
26/11:00pm 18.2 14.6 12.9 71 3.0 S 24 37 13 20 1021.6 1021.6 0.0
26/10:30pm 18.4 14.6 12.4 68 3.3 S 24 33 13 18 1021.3 1021.3 0.0
26/10:00pm 19.0 15.3 12.7 67 3.5 SSE 24 41 13 22 1021.0 1021.0 0.0
26/09:30pm 19.5 15.6 12.0 62 4.2 SSE 24 32 13 17 1020.8 1020.8 0.0
26/09:00pm 19.6 16.5 14.4 72 3.0 SSW 24 32 13 17 1020.5 1020.5 0.0
26/08:30pm 19.3 13.8 13.7 70 3.2 SSW 35 44 19 24 1019.9 1019.9 0.0
26/08:00pm 19.4 13.5 13.6 69 3.3 SSW 37 48 20 26 1019.8 1019.8 0.0
26/07:30pm 19.9 14.8 13.6 67 3.6 S 33 46 18 25 1019.8 1019.8 0.0
26/07:00pm 20.1 13.9 13.8 67 3.6 S 39 50 21 27 1019.6 1019.6 0.0
26/06:30pm 20.8 14.0 13.0 61 4.4 S 41 50 22 27 1019.3 1019.2 0.0
26/06:00pm 21.1 14.6 12.8 59 4.7 S 39 48 21 26 1019.4 1019.3 0.0
26/05:30pm 21.6 16.0 13.2 59 4.8 S 35 46 19 25 1019.2 1019.1 0.0
26/05:00pm 21.9 15.8 13.0 57 5.1 S 37 43 20 23 1019.4 1019.3 0.0
26/04:30pm 22.4 17.2 11.5 50 6.1 S 30 39 16 21 1019.7 1019.7 0.0
26/04:00pm 21.8 16.0 10.9 50 6.0 S 32 43 17 23 1019.7 1019.7 0.0
26/03:30pm 23.1 17.9 11.5 48 6.5 S 30 41 16 22 1020.1 1020.1 0.0
26/03:00pm 22.7 16.9 10.8 47 6.6 S 32 37 17 20 1020.4 1020.4 0.0
26/02:30pm 21.9 16.8 10.7 49 6.1 S 28 37 15 20 1020.7 1020.7 0.0
26/02:00pm 21.8 16.5 10.0 47 6.4 S 28 35 15 19 1021.1 1021.1 0.0
26/01:30pm 21.4 16.3 9.3 46 6.4 S 26 33 14 18 1021.5 1021.5 0.0
26/01:00pm 20.7 15.4 8.4 45 6.4 S 26 33 14 18 1021.6 1021.6 0.0
26/12:30pm 20.7 15.5 8.7 46 6.3 S 26 37 14 20 1021.9 1021.9 0.0
26/12:00pm 20.3 15.9 8.9 48 6.0 SSE 22 32 12 17 1022.4 1022.4 0.0
26/11:30am 19.4 14.6 9.0 51 5.4 S 24 37 13 20 1022.8 1022.8 0.0
26/11:00am 19.8 15.7 10.0 53 5.3 SSE 22 32 12 17 1022.7 1022.7 0.0
26/10:30am 19.0 14.4 9.5 54 5.0 SSE 24 32 13 17 1022.5 1022.5 0.0
26/10:00am 19.2 15.4 9.9 55 5.0 SSE 20 28 11 15 1022.9 1022.9 0.0
26/09:30am 18.3 14.5 9.9 58 4.4 SSE 20 26 11 14 1023.0 1023.0 0.0
26/09:00am 18.0 14.4 10.4 61 4.0 SSE 20 28 11 15 1022.8 1022.8 0.0
26/08:30am 18.1 14.5 10.5 61 4.1 SSE 20 24 11 13 1022.4 1022.4 0.0
26/08:00am 17.7 14.2 10.3 62 3.9 SSE 19 26 10 14 1022.1 1022.1 0.0
26/07:30am 17.4 14.3 10.3 63 3.8 SSE 17 24 9 13 1021.8 1021.8 0.0
26/07:00am 16.5 13.2 9.7 64 3.6 SE 17 26 9 14 1021.3 1021.3 0.0
26/06:30am 15.7 12.7 9.4 66 3.2 SSE 15 22 8 12 1021.1 1021.1 0.0
26/06:00am 15.2 12.2 9.1 67 3.1 SE 15 20 8 11 1020.8 1020.8 0.0
26/05:30am 14.9 12.4 9.7 71 2.7 SE 13 17 7 9 1020.6 1020.6 0.0
26/05:00am 14.9 13.2 9.7 71 2.7 SE 9 13 5 7 1020.5 1020.5 0.0
26/04:30am 15.6 13.1 11.2 75 2.3 SE 15 22 8 12 1020.5 1020.5 0.0
26/04:00am 16.1 13.3 11.3 73 2.6 SSE 17 24 9 13 1020.4 1020.4 0.0
26/03:30am 16.2 13.4 11.4 73 2.6 SSE 17 22 9 12 1020.6 1020.6 0.0
26/03:00am 16.2 13.3 10.9 71 2.8 SSE 17 22 9 12 1020.6 1020.6 0.0
26/02:30am 16.3 13.3 10.8 70 2.9 SSE 17 22 9 12 1020.7 1020.7 0.0
26/02:00am 16.4 12.8 10.7 69 3.0 SSE 20 28 11 15 1020.8 1020.8 0.0
26/01:30am 16.6 12.2 10.5 67 3.2 SSE 24 33 13 18 1021.0 1021.0 0.0
26/01:00am 16.7 13.0 10.1 65 3.5 SSE 20 30 11 16 1021.4 1021.4 0.0
26/12:30am 17.2 13.2 10.3 64 3.6 SSE 22 30 12 16 1021.7 1021.7 0.0
26/12:00am 17.3 13.7 10.4 64 3.7 SSE 20 30 11 16 1021.8 1021.8 0.0
 
Date/Time
CDT
Temp
°C
App
Temp
°C
Dew
Point
Rel
Hum
%
Delta-T
°C
Wind Press
QNH
hPa
Press
MSL
hPa
Rain
since 9 am
mm
Dir
 
Spd
km/h
Gust
km/h
Spd
kts
Gust
kts
25/11:30pm 17.7 13.7 10.3 62 3.9 SSE 22 33 12 18 1021.9 1021.9 0.0
25/11:00pm 17.8 14.1 10.2 61 4.0 SSE 20 30 11 16 1022.0 1022.0 0.0
25/10:30pm 18.1 13.2 11.2 64 3.7 S 28 37 15 20 1021.8 1021.8 0.0
25/10:00pm 17.8 12.8 10.9 64 3.7 S 28 41 15 22 1021.8 1021.8 0.0
25/09:30pm 18.0 12.5 10.6 62 4.0 S 30 39 16 21 1021.5 1021.5 0.0
25/09:00pm 18.1 12.6 10.7 62 4.0 S 30 41 16 22 1021.3 1021.3 0.0
25/08:30pm 18.4 12.7 9.7 57 4.6 S 30 37 16 20 1021.1 1021.1 0.0
25/08:00pm 18.6 12.6 8.6 52 5.2 S 30 41 16 22 1020.9 1020.9 0.0
25/07:30pm 19.1 12.9 9.9 55 4.9 S 33 44 18 24 1020.7 1020.7 0.0
25/07:00pm 19.9 14.0 10.3 54 5.2 S 32 46 17 25 1020.4 1020.4 0.0
25/06:30pm 20.3 14.4 10.4 53 5.3 S 32 41 17 22 1020.1 1020.1 0.0
25/06:00pm 21.2 15.2 8.8 45 6.5 S 30 39 16 21 1020.1 1020.1 0.0
25/05:30pm 20.8 14.1 9.7 49 5.9 S 35 43 19 23 1020.0 1020.0 0.0
25/05:00pm 20.6 14.4 9.5 49 5.9 S 32 41 17 22 1020.1 1020.1 0.0
25/04:30pm 21.5 15.5 8.7 44 6.7 S 30 41 16 22 1020.3 1020.3 0.0
25/04:00pm 22.0 16.4 8.9 43 7.0 S 28 35 15 19 1020.5 1020.5 0.0
25/03:30pm 21.8 16.1 6.5 37 7.7 S 26 33 14 18 1020.8 1020.8 0.0
25/03:00pm 22.0 16.5 5.8 35 8.1 S 24 33 13 18 1021.1 1021.1 0.0
25/02:30pm 21.5 16.3 5.4 35 8.0 S 22 35 12 19 1021.5 1021.5 0.0
25/02:00pm 21.6 15.9 4.7 33 8.3 SSE 24 33 13 18 1021.8 1021.8 0.0
25/01:30pm 20.4 15.2 7.1 42 6.7 S 24 35 13 19 1022.2 1022.2 0.0
25/01:00pm 19.7 14.5 7.1 44 6.4 SSE 24 35 13 19 1022.5 1022.5 0.0
25/12:30pm 19.7 14.8 7.1 44 6.4 SE 22 32 12 17 1022.7 1022.7 0.0
25/12:00pm 19.7 14.8 7.1 44 6.4 SSE 22 32 12 17 1022.8 1022.8 0.0
25/11:30am 19.5 15.3 8.2 48 5.8 SE 20 26 11 14 1022.9 1022.9 0.0
25/11:00am 18.6 14.1 7.1 47 5.8 SE 20 32 11 17 1022.8 1022.8 0.0
25/10:30am 18.7 14.4 7.2 47 5.8 SSE 19 30 10 16 1023.0 1023.0 0.0
25/10:00am 18.8 14.9 6.9 46 6.0 SE 17 28 9 15 1022.8 1022.8 0.0
25/09:30am 18.1 14.1 6.6 47 5.7 SE 17 24 9 13 1022.9 1022.9 0.0
25/09:00am 18.1 14.0 6.0 45 5.9 SE 17 24 9 13 1022.9 1022.9 0.0
25/08:30am 17.7 13.8 6.9 49 5.4 ESE 17 22 9 12 1022.9 1022.9 0.0
25/08:00am 17.7 13.9 7.4 51 5.2 ESE 17 22 9 12 1022.6 1022.6 0.0
25/07:30am 17.1 14.1 7.7 54 4.7 ESE 13 19 7 10 1022.3 1022.3 0.0
25/07:00am 16.4 14.0 6.8 53 4.7 ESE 9 13 5 7 1022.1 1022.1 0.0
25/06:30am 15.4 12.6 6.9 57 4.1 ESE 11 15 6 8 1021.8 1021.8 0.0
25/06:00am 15.2 11.9 6.2 55 4.3 SE 13 19 7 10 1021.4 1021.4 0.0
25/05:30am 15.5 12.1 7.5 59 4.0 SSE 15 19 8 10 1021.2 1021.2 0.0
25/05:00am 15.3 12.2 7.1 58 4.0 SSE 13 20 7 11 1020.9 1020.9 0.0
25/04:30am 15.3 11.8 7.1 58 4.0 SSE 15 20 8 11 1020.7 1020.7 0.0
25/04:00am 15.4 11.6 7.7 60 3.8 SSE 17 24 9 13 1020.5 1020.5 0.0
25/03:30am 15.4 11.9 8.6 64 3.4 SSE 17 22 9 12 1020.2 1020.2 0.0
25/03:00am 15.6 11.5 8.8 64 3.5 SSE 20 28 11 15 1020.2 1020.2 0.0
25/02:30am 15.9 11.9 9.1 64 3.5 SSE 20 28 11 15 1020.1 1020.1 0.0
25/02:00am 16.5 12.2 8.0 57 4.3 S 20 32 11 17 1020.1 1020.1 0.0
25/01:30am 16.4 11.3 7.6 56 4.4 S 24 33 13 18 1020.2 1020.2 0.0
25/01:00am 16.1 11.0 7.6 57 4.2 S 24 32 13 17 1020.1 1020.1 0.0
25/12:30am 16.4 11.0 7.9 57 4.3 S 26 39 14 21 1020.1 1020.1 0.0
25/12:00am 16.4 10.5 7.3 55 4.5 S 28 43 15 23 1020.0 1020.0 0.0
 
Date/Time
CDT
Temp
°C
App
Temp
°C
Dew
Point
Rel
Hum
%
Delta-T
°C
Wind Press
QNH
hPa
Press
MSL
hPa
Rain
since 9 am
mm
Dir
 
Spd
km/h
Gust
km/h
Spd
kts
Gust
kts
24/11:30pm 16.5 9.8 7.4 55 4.5 S 32 44 17 24 1020.1 1020.1 0.0
24/11:00pm 16.7 10.3 8.7 59 4.1 S 32 46 17 25 1019.9 1019.9 0.0
24/10:30pm 16.8 10.3 8.8 59 4.1 S 33 46 18 25 1019.5 1019.5 0.0
24/10:00pm 17.1 10.9 9.5 61 4.0 S 32 43 17 23 1019.2 1019.1 0.0
24/09:30pm 17.1 10.4 9.5 61 4.0 S 35 48 19 26 1018.7 1018.6 0.0
24/09:00pm 17.2 10.7 9.1 59 4.2 S 33 50 18 27 1018.3 1018.2 0.0
24/08:30pm 17.3 10.9 8.4 56 4.5 S 32 46 17 25 1018.0 1017.9 0.0
24/08:20pm 17.4 10.4 8.5 56 4.6 S 35 54 19 29 1017.8 1017.7 0.0
24/08:00pm 17.5 9.9 8.9 57 4.5 S 39 54 21 29 1017.5 1017.4 0.0
24/07:44pm 17.8 10.6 9.2 57 4.5 S 37 56 20 30 1017.1 1017.0 0.0
24/07:30pm 18.0 9.8 8.3 53 5.0 S 41 57 22 31 1016.7 1016.6 0.0
24/07:00pm 18.7 10.1 8.9 53 5.1 S 44 59 24 32 1016.2 1016.1 0.0
24/06:30pm 19.2 11.4 9.7 54 5.0 S 41 54 22 29 1015.8 1015.7 0.0
24/06:13pm 19.5 12.2 8.8 50 5.6 S 37 56 20 30 1015.8 1015.7 0.0
24/06:00pm 19.7 10.9 7.4 45 6.3 S 43 57 23 31 1015.7 1015.6 0.0
24/05:30pm 20.0 12.2 9.6 51 5.5 S 41 56 22 30 1015.5 1015.4 0.0
24/05:16pm 20.0 12.1 10.7 55 5.1 S 43 65 23 35 1015.2 1015.1 0.0
24/05:00pm 20.4 12.4 10.5 53 5.4 S 43 57 23 31 1015.3 1015.2 0.0
24/04:52pm 20.0 12.8 10.7 55 5.1 S 39 57 21 31 1015.0 1014.9 0.0
24/04:30pm 20.2 12.1 10.6 54 5.2 S 44 57 24 31 1014.9 1014.8 0.0
24/04:00pm 20.5 13.2 11.4 56 5.0 S 41 54 22 29 1014.8 1014.7 0.0
24/03:42pm 21.8 15.0 11.8 53 5.6 S 39 57 21 31 1014.9 1014.8 0.0
24/03:30pm 21.0 14.2 11.9 56 5.1 S 39 52 21 28 1014.8 1014.7 0.0
24/03:00pm 21.1 13.7 12.5 58 4.9 S 43 54 23 29 1014.7 1014.6 0.0
24/02:30pm 21.4 14.6 12.0 55 5.3 S 39 52 21 28 1014.6 1014.5 0.0
24/02:00pm 21.4 15.0 13.3 60 4.6 S 39 56 21 30 1014.6 1014.5 0.0
24/01:30pm 20.9 15.3 13.4 62 4.3 S 35 46 19 25 1014.8 1014.7 0.0
24/01:17pm 22.4 16.6 14.0 59 4.9 S 37 56 20 30 1014.6 1014.5 0.0

Other Formats:

Comma delimited format used in spreadsheet applications
http://www.bom.gov.au/fwo/IDS60801/IDS60801.95664.axf

JavaScript Object Notation format (JSON) in row-major order
http://www.bom.gov.au/fwo/IDS60801/IDS60801.95664.json